sensor_id;sensor_type;location;lat;lon;timestamp;P1;durP1;ratioP1;P2;durP2;ratioP2
52948;SDS011;38812;50.942;3.644;2023-04-03T00:00:08;19.30;;;12.13;;
52948;SDS011;38812;50.942;3.644;2023-04-03T00:02:35;17.42;;;10.88;;
52948;SDS011;38812;50.942;3.644;2023-04-03T00:05:00;47.80;;;12.45;;
52948;SDS011;38812;50.942;3.644;2023-04-03T00:07:25;29.15;;;11.35;;
52948;SDS011;38812;50.942;3.644;2023-04-03T00:09:51;20.30;;;12.45;;
52948;SDS011;38812;50.942;3.644;2023-04-03T00:12:17;15.95;;;11.95;;
52948;SDS011;38812;50.942;3.644;2023-04-03T00:14:42;15.65;;;11.43;;
52948;SDS011;38812;50.942;3.644;2023-04-03T00:17:07;16.08;;;11.45;;
52948;SDS011;38812;50.942;3.644;2023-04-03T00:19:33;16.02;;;11.57;;
52948;SDS011;38812;50.942;3.644;2023-04-03T00:21:58;21.80;;;13.25;;
52948;SDS011;38812;50.942;3.644;2023-04-03T00:24:24;16.65;;;12.55;;
52948;SDS011;38812;50.942;3.644;2023-04-03T00:26:49;16.02;;;12.63;;
52948;SDS011;38812;50.942;3.644;2023-04-03T00:29:15;15.82;;;11.60;;
52948;SDS011;38812;50.942;3.644;2023-04-03T00:31:40;17.08;;;11.98;;
52948;SDS011;38812;50.942;3.644;2023-04-03T00:34:06;14.98;;;10.90;;
52948;SDS011;38812;50.942;3.644;2023-04-03T00:36:31;16.65;;;11.57;;
52948;SDS011;38812;50.942;3.644;2023-04-03T00:38:56;17.70;;;11.40;;
52948;SDS011;38812;50.942;3.644;2023-04-03T00:41:22;13.43;;;10.20;;
52948;SDS011;38812;50.942;3.644;2023-04-03T00:43:47;15.73;;;10.45;;
52948;SDS011;38812;50.942;3.644;2023-04-03T00:46:13;12.90;;;10.07;;
52948;SDS011;38812;50.942;3.644;2023-04-03T00:48:39;15.25;;;11.35;;
52948;SDS011;38812;50.942;3.644;2023-04-03T00:51:09;15.93;;;10.60;;
52948;SDS011;38812;50.942;3.644;2023-04-03T00:53:48;17.85;;;11.65;;
52948;SDS011;38812;50.942;3.644;2023-04-03T00:56:16;13.88;;;10.20;;
52948;SDS011;38812;50.942;3.644;2023-04-03T00:58:48;16.08;;;11.23;;
52948;SDS011;38812;50.942;3.644;2023-04-03T01:01:20;12.05;;;9.43;;
52948;SDS011;38812;50.942;3.644;2023-04-03T01:03:48;17.65;;;11.07;;
52948;SDS011;38812;50.942;3.644;2023-04-03T01:06:15;15.25;;;10.48;;
52948;SDS011;38812;50.942;3.644;2023-04-03T01:08:41;16.75;;;11.43;;
52948;SDS011;38812;50.942;3.644;2023-04-03T01:11:07;14.90;;;10.88;;
52948;SDS011;38812;50.942;3.644;2023-04-03T01:13:33;15.48;;;11.73;;
52948;SDS011;38812;50.942;3.644;2023-04-03T01:16:03;17.23;;;11.52;;
52948;SDS011;38812;50.942;3.644;2023-04-03T01:18:29;16.85;;;12.30;;
52948;SDS011;38812;50.942;3.644;2023-04-03T01:21:08;15.18;;;10.88;;
52948;SDS011;38812;50.942;3.644;2023-04-03T01:26:31;17.50;;;11.70;;
52948;SDS011;38812;50.942;3.644;2023-04-03T01:28:58;25.38;;;13.18;;
52948;SDS011;38812;50.942;3.644;2023-04-03T01:31:25;18.70;;;12.98;;
52948;SDS011;38812;50.942;3.644;2023-04-03T01:33:51;19.63;;;13.27;;
52948;SDS011;38812;50.942;3.644;2023-04-03T01:36:18;18.25;;;12.77;;
52948;SDS011;38812;50.942;3.644;2023-04-03T01:38:46;22.17;;;13.55;;
52948;SDS011;38812;50.942;3.644;2023-04-03T01:41:12;20.83;;;12.75;;
52948;SDS011;38812;50.942;3.644;2023-04-03T01:43:38;19.55;;;11.95;;
52948;SDS011;38812;50.942;3.644;2023-04-03T01:46:03;18.85;;;13.02;;
52948;SDS011;38812;50.942;3.644;2023-04-03T01:48:29;17.50;;;12.85;;
52948;SDS011;38812;50.942;3.644;2023-04-03T01:50:54;18.30;;;12.63;;
52948;SDS011;38812;50.942;3.644;2023-04-03T01:53:20;19.25;;;13.52;;
52948;SDS011;38812;50.942;3.644;2023-04-03T01:55:45;17.50;;;11.52;;
52948;SDS011;38812;50.942;3.644;2023-04-03T01:58:11;22.80;;;12.57;;
52948;SDS011;38812;50.942;3.644;2023-04-03T02:00:36;19.55;;;13.07;;
52948;SDS011;38812;50.942;3.644;2023-04-03T02:03:02;16.30;;;12.35;;
52948;SDS011;38812;50.942;3.644;2023-04-03T02:05:27;22.02;;;12.45;;
52948;SDS011;38812;50.942;3.644;2023-04-03T02:07:53;17.52;;;12.63;;
52948;SDS011;38812;50.942;3.644;2023-04-03T02:10:18;19.92;;;12.52;;
52948;SDS011;38812;50.942;3.644;2023-04-03T02:12:44;18.13;;;11.77;;
52948;SDS011;38812;50.942;3.644;2023-04-03T02:15:10;15.48;;;11.05;;
52948;SDS011;38812;50.942;3.644;2023-04-03T02:17:35;16.42;;;11.10;;
52948;SDS011;38812;50.942;3.644;2023-04-03T02:20:01;21.58;;;12.27;;
52948;SDS011;38812;50.942;3.644;2023-04-03T02:22:28;18.95;;;11.70;;
52948;SDS011;38812;50.942;3.644;2023-04-03T02:24:53;18.15;;;10.88;;
52948;SDS011;38812;50.942;3.644;2023-04-03T02:27:18;16.10;;;11.25;;
52948;SDS011;38812;50.942;3.644;2023-04-03T02:29:44;17.75;;;11.52;;
52948;SDS011;38812;50.942;3.644;2023-04-03T02:32:09;15.82;;;11.18;;
52948;SDS011;38812;50.942;3.644;2023-04-03T02:34:35;18.70;;;11.02;;
52948;SDS011;38812;50.942;3.644;2023-04-03T02:37:00;14.82;;;10.82;;
52948;SDS011;38812;50.942;3.644;2023-04-03T02:39:26;15.93;;;10.05;;
52948;SDS011;38812;50.942;3.644;2023-04-03T02:41:51;16.52;;;10.90;;
52948;SDS011;38812;50.942;3.644;2023-04-03T02:44:17;15.38;;;10.50;;
52948;SDS011;38812;50.942;3.644;2023-04-03T02:46:43;17.77;;;9.43;;
52948;SDS011;38812;50.942;3.644;2023-04-03T02:49:09;16.27;;;10.20;;
52948;SDS011;38812;50.942;3.644;2023-04-03T02:51:34;14.68;;;9.90;;
52948;SDS011;38812;50.942;3.644;2023-04-03T02:54:00;14.93;;;9.07;;
52948;SDS011;38812;50.942;3.644;2023-04-03T02:56:25;15.63;;;9.63;;
52948;SDS011;38812;50.942;3.644;2023-04-03T02:58:51;16.20;;;9.02;;
52948;SDS011;38812;50.942;3.644;2023-04-03T03:01:17;12.82;;;8.48;;
52948;SDS011;38812;50.942;3.644;2023-04-03T03:03:43;15.07;;;10.07;;
52948;SDS011;38812;50.942;3.644;2023-04-03T03:06:09;19.15;;;9.93;;
52948;SDS011;38812;50.942;3.644;2023-04-03T03:08:36;14.20;;;9.63;;
52948;SDS011;38812;50.942;3.644;2023-04-03T03:11:02;13.82;;;9.55;;
52948;SDS011;38812;50.942;3.644;2023-04-03T03:13:28;16.25;;;9.50;;
52948;SDS011;38812;50.942;3.644;2023-04-03T03:15:54;16.75;;;9.20;;
52948;SDS011;38812;50.942;3.644;2023-04-03T03:18:20;14.95;;;10.23;;
52948;SDS011;38812;50.942;3.644;2023-04-03T03:20:45;17.17;;;11.00;;
52948;SDS011;38812;50.942;3.644;2023-04-03T03:23:11;20.38;;;9.68;;
52948;SDS011;38812;50.942;3.644;2023-04-03T03:25:39;18.88;;;11.00;;
52948;SDS011;38812;50.942;3.644;2023-04-03T03:28:05;15.32;;;9.35;;
52948;SDS011;38812;50.942;3.644;2023-04-03T03:30:31;20.67;;;10.43;;
52948;SDS011;38812;50.942;3.644;2023-04-03T03:32:57;18.00;;;9.98;;
52948;SDS011;38812;50.942;3.644;2023-04-03T03:35:22;17.40;;;10.13;;
52948;SDS011;38812;50.942;3.644;2023-04-03T03:37:47;22.13;;;9.88;;
52948;SDS011;38812;50.942;3.644;2023-04-03T03:40:13;14.85;;;10.13;;
52948;SDS011;38812;50.942;3.644;2023-04-03T03:42:38;18.08;;;9.70;;
52948;SDS011;38812;50.942;3.644;2023-04-03T03:45:04;16.23;;;10.15;;
52948;SDS011;38812;50.942;3.644;2023-04-03T03:47:31;14.75;;;10.18;;
52948;SDS011;38812;50.942;3.644;2023-04-03T03:49:56;15.35;;;9.95;;
52948;SDS011;38812;50.942;3.644;2023-04-03T03:52:21;15.90;;;9.80;;
52948;SDS011;38812;50.942;3.644;2023-04-03T03:54:47;19.13;;;10.75;;
52948;SDS011;38812;50.942;3.644;2023-04-03T03:57:12;17.17;;;11.27;;
52948;SDS011;38812;50.942;3.644;2023-04-03T03:59:38;17.45;;;10.98;;
52948;SDS011;38812;50.942;3.644;2023-04-03T04:02:05;15.13;;;10.57;;
52948;SDS011;38812;50.942;3.644;2023-04-03T04:04:30;14.93;;;8.65;;
52948;SDS011;38812;50.942;3.644;2023-04-03T04:06:56;20.02;;;9.65;;
52948;SDS011;38812;50.942;3.644;2023-04-03T04:09:21;13.55;;;9.13;;
52948;SDS011;38812;50.942;3.644;2023-04-03T04:11:47;17.00;;;8.20;;
52948;SDS011;38812;50.942;3.644;2023-04-03T04:14:12;12.55;;;8.23;;
52948;SDS011;38812;50.942;3.644;2023-04-03T04:16:38;16.92;;;8.65;;
52948;SDS011;38812;50.942;3.644;2023-04-03T04:19:03;11.93;;;9.15;;
52948;SDS011;38812;50.942;3.644;2023-04-03T04:21:29;12.15;;;8.35;;
52948;SDS011;38812;50.942;3.644;2023-04-03T04:23:54;14.20;;;8.35;;
52948;SDS011;38812;50.942;3.644;2023-04-03T04:26:20;17.52;;;8.50;;
52948;SDS011;38812;50.942;3.644;2023-04-03T04:28:46;15.30;;;8.48;;
52948;SDS011;38812;50.942;3.644;2023-04-03T04:31:11;15.30;;;8.65;;
52948;SDS011;38812;50.942;3.644;2023-04-03T04:33:37;13.20;;;7.78;;
52948;SDS011;38812;50.942;3.644;2023-04-03T04:36:02;15.93;;;9.05;;
52948;SDS011;38812;50.942;3.644;2023-04-03T04:38:28;14.80;;;8.52;;
52948;SDS011;38812;50.942;3.644;2023-04-03T04:40:53;16.45;;;8.48;;
52948;SDS011;38812;50.942;3.644;2023-04-03T04:43:18;11.07;;;7.82;;
52948;SDS011;38812;50.942;3.644;2023-04-03T04:45:44;13.30;;;8.32;;
52948;SDS011;38812;50.942;3.644;2023-04-03T04:48:10;12.18;;;7.97;;
52948;SDS011;38812;50.942;3.644;2023-04-03T04:50:35;16.65;;;7.93;;
52948;SDS011;38812;50.942;3.644;2023-04-03T04:53:00;11.75;;;7.82;;
52948;SDS011;38812;50.942;3.644;2023-04-03T04:55:26;12.95;;;8.07;;
52948;SDS011;38812;50.942;3.644;2023-04-03T04:57:51;11.98;;;7.95;;
52948;SDS011;38812;50.942;3.644;2023-04-03T05:00:17;13.05;;;8.10;;
52948;SDS011;38812;50.942;3.644;2023-04-03T05:02:43;10.80;;;7.63;;
52948;SDS011;38812;50.942;3.644;2023-04-03T05:05:08;11.80;;;8.43;;
52948;SDS011;38812;50.942;3.644;2023-04-03T05:07:34;27.02;;;10.05;;
52948;SDS011;38812;50.942;3.644;2023-04-03T05:10:00;17.50;;;8.00;;
52948;SDS011;38812;50.942;3.644;2023-04-03T05:12:27;14.57;;;9.13;;
52948;SDS011;38812;50.942;3.644;2023-04-03T05:14:53;15.73;;;8.43;;
52948;SDS011;38812;50.942;3.644;2023-04-03T05:17:18;12.02;;;8.32;;
52948;SDS011;38812;50.942;3.644;2023-04-03T05:19:43;14.90;;;9.55;;
52948;SDS011;38812;50.942;3.644;2023-04-03T05:22:09;18.35;;;9.82;;
52948;SDS011;38812;50.942;3.644;2023-04-03T05:24:34;12.13;;;8.43;;
52948;SDS011;38812;50.942;3.644;2023-04-03T05:27:00;14.07;;;9.48;;
52948;SDS011;38812;50.942;3.644;2023-04-03T05:29:25;14.32;;;9.82;;
52948;SDS011;38812;50.942;3.644;2023-04-03T05:31:51;23.38;;;11.68;;
52948;SDS011;38812;50.942;3.644;2023-04-03T05:34:16;15.68;;;9.93;;
52948;SDS011;38812;50.942;3.644;2023-04-03T05:36:42;16.27;;;9.63;;
52948;SDS011;38812;50.942;3.644;2023-04-03T05:39:07;17.17;;;9.43;;
52948;SDS011;38812;50.942;3.644;2023-04-03T05:41:33;16.27;;;9.77;;
52948;SDS011;38812;50.942;3.644;2023-04-03T05:43:59;21.48;;;9.75;;
52948;SDS011;38812;50.942;3.644;2023-04-03T05:46:24;15.43;;;9.55;;
52948;SDS011;38812;50.942;3.644;2023-04-03T05:48:50;14.75;;;8.95;;
52948;SDS011;38812;50.942;3.644;2023-04-03T05:51:21;16.42;;;10.02;;
52948;SDS011;38812;50.942;3.644;2023-04-03T05:53:48;9.70;;;6.68;;
52948;SDS011;38812;50.942;3.644;2023-04-03T05:56:17;13.05;;;9.68;;
52948;SDS011;38812;50.942;3.644;2023-04-03T05:58:42;14.50;;;10.55;;
52948;SDS011;38812;50.942;3.644;2023-04-03T06:01:08;16.52;;;10.10;;
52948;SDS011;38812;50.942;3.644;2023-04-03T06:03:33;18.17;;;10.80;;
52948;SDS011;38812;50.942;3.644;2023-04-03T06:05:59;16.10;;;11.85;;
52948;SDS011;38812;50.942;3.644;2023-04-03T06:08:24;22.30;;;14.98;;
52948;SDS011;38812;50.942;3.644;2023-04-03T06:10:49;24.20;;;13.77;;
52948;SDS011;38812;50.942;3.644;2023-04-03T06:13:16;21.00;;;11.73;;
52948;SDS011;38812;50.942;3.644;2023-04-03T06:15:41;12.88;;;9.95;;
52948;SDS011;38812;50.942;3.644;2023-04-03T06:18:07;10.05;;;7.32;;
52948;SDS011;38812;50.942;3.644;2023-04-03T06:20:33;11.95;;;6.80;;
52948;SDS011;38812;50.942;3.644;2023-04-03T06:22:58;9.02;;;6.15;;
52948;SDS011;38812;50.942;3.644;2023-04-03T06:25:24;9.15;;;6.00;;
52948;SDS011;38812;50.942;3.644;2023-04-03T06:27:50;12.50;;;7.10;;
52948;SDS011;38812;50.942;3.644;2023-04-03T06:30:15;9.63;;;5.63;;
52948;SDS011;38812;50.942;3.644;2023-04-03T06:32:41;10.07;;;4.90;;
52948;SDS011;38812;50.942;3.644;2023-04-03T06:35:07;7.18;;;4.95;;
52948;SDS011;38812;50.942;3.644;2023-04-03T06:37:33;7.10;;;5.32;;
52948;SDS011;38812;50.942;3.644;2023-04-03T06:39:59;9.63;;;5.38;;
52948;SDS011;38812;50.942;3.644;2023-04-03T06:42:25;10.55;;;6.03;;
52948;SDS011;38812;50.942;3.644;2023-04-03T06:44:51;9.48;;;5.78;;
52948;SDS011;38812;50.942;3.644;2023-04-03T06:47:16;11.35;;;5.85;;
52948;SDS011;38812;50.942;3.644;2023-04-03T06:49:42;13.18;;;6.30;;
52948;SDS011;38812;50.942;3.644;2023-04-03T06:52:08;9.57;;;5.85;;
52948;SDS011;38812;50.942;3.644;2023-04-03T06:54:35;9.23;;;5.63;;
52948;SDS011;38812;50.942;3.644;2023-04-03T06:57:00;11.25;;;5.60;;
52948;SDS011;38812;50.942;3.644;2023-04-03T06:59:26;12.35;;;5.88;;
52948;SDS011;38812;50.942;3.644;2023-04-03T07:01:52;9.60;;;5.90;;
52948;SDS011;38812;50.942;3.644;2023-04-03T07:04:17;12.02;;;6.28;;
52948;SDS011;38812;50.942;3.644;2023-04-03T07:06:45;15.18;;;7.30;;
52948;SDS011;38812;50.942;3.644;2023-04-03T07:09:11;6.38;;;4.95;;
52948;SDS011;38812;50.942;3.644;2023-04-03T07:11:37;11.35;;;7.13;;
52948;SDS011;38812;50.942;3.644;2023-04-03T07:14:03;11.38;;;5.95;;
52948;SDS011;38812;50.942;3.644;2023-04-03T07:16:28;11.90;;;5.93;;
52948;SDS011;38812;50.942;3.644;2023-04-03T07:18:56;9.85;;;5.72;;
52948;SDS011;38812;50.942;3.644;2023-04-03T07:21:22;8.95;;;5.55;;
52948;SDS011;38812;50.942;3.644;2023-04-03T07:23:47;8.73;;;5.05;;
52948;SDS011;38812;50.942;3.644;2023-04-03T07:26:13;10.70;;;5.47;;
52948;SDS011;38812;50.942;3.644;2023-04-03T07:28:38;11.48;;;4.72;;
52948;SDS011;38812;50.942;3.644;2023-04-03T07:31:06;7.78;;;4.75;;
52948;SDS011;38812;50.942;3.644;2023-04-03T07:33:36;13.65;;;5.63;;
52948;SDS011;38812;50.942;3.644;2023-04-03T07:36:02;8.63;;;5.65;;
52948;SDS011;38812;50.942;3.644;2023-04-03T07:38:28;9.43;;;4.90;;
52948;SDS011;38812;50.942;3.644;2023-04-03T07:40:54;9.00;;;4.93;;
52948;SDS011;38812;50.942;3.644;2023-04-03T07:43:19;7.50;;;5.00;;
52948;SDS011;38812;50.942;3.644;2023-04-03T07:45:46;11.25;;;5.00;;
52948;SDS011;38812;50.942;3.644;2023-04-03T07:48:14;9.73;;;4.47;;
52948;SDS011;38812;50.942;3.644;2023-04-03T07:50:40;11.38;;;4.43;;
52948;SDS011;38812;50.942;3.644;2023-04-03T07:53:06;12.40;;;5.68;;
52948;SDS011;38812;50.942;3.644;2023-04-03T07:55:32;9.90;;;4.38;;
52948;SDS011;38812;50.942;3.644;2023-04-03T07:57:58;8.32;;;5.22;;
52948;SDS011;38812;50.942;3.644;2023-04-03T08:00:23;10.73;;;4.80;;
52948;SDS011;38812;50.942;3.644;2023-04-03T08:02:49;12.60;;;3.97;;
52948;SDS011;38812;50.942;3.644;2023-04-03T08:05:19;5.72;;;4.15;;
52948;SDS011;38812;50.942;3.644;2023-04-03T08:07:46;7.72;;;5.13;;
52948;SDS011;38812;50.942;3.644;2023-04-03T08:10:12;6.20;;;3.55;;
52948;SDS011;38812;50.942;3.644;2023-04-03T08:12:37;8.43;;;4.35;;
52948;SDS011;38812;50.942;3.644;2023-04-03T08:15:03;7.68;;;4.35;;
52948;SDS011;38812;50.942;3.644;2023-04-03T08:17:29;6.13;;;3.55;;
52948;SDS011;38812;50.942;3.644;2023-04-03T08:19:55;14.25;;;5.65;;
52948;SDS011;38812;50.942;3.644;2023-04-03T08:22:20;7.57;;;4.00;;
52948;SDS011;38812;50.942;3.644;2023-04-03T08:24:46;8.25;;;4.43;;
52948;SDS011;38812;50.942;3.644;2023-04-03T08:27:11;11.55;;;4.60;;
52948;SDS011;38812;50.942;3.644;2023-04-03T08:29:37;8.95;;;4.53;;
52948;SDS011;38812;50.942;3.644;2023-04-03T08:32:03;9.85;;;4.68;;
52948;SDS011;38812;50.942;3.644;2023-04-03T08:34:29;10.73;;;5.00;;
52948;SDS011;38812;50.942;3.644;2023-04-03T08:36:55;11.10;;;5.43;;
52948;SDS011;38812;50.942;3.644;2023-04-03T08:39:20;12.65;;;5.32;;
52948;SDS011;38812;50.942;3.644;2023-04-03T08:41:46;10.50;;;5.72;;
52948;SDS011;38812;50.942;3.644;2023-04-03T08:44:17;9.18;;;4.55;;
52948;SDS011;38812;50.942;3.644;2023-04-03T08:49:32;15.68;;;5.07;;
52948;SDS011;38812;50.942;3.644;2023-04-03T08:52:04;7.45;;;4.72;;
52948;SDS011;38812;50.942;3.644;2023-04-03T08:54:35;10.88;;;4.13;;
52948;SDS011;38812;50.942;3.644;2023-04-03T08:57:09;12.00;;;4.45;;
52948;SDS011;38812;50.942;3.644;2023-04-03T08:59:37;7.20;;;2.80;;
52948;SDS011;38812;50.942;3.644;2023-04-03T09:02:17;10.75;;;3.30;;
52948;SDS011;38812;50.942;3.644;2023-04-03T09:04:51;7.93;;;2.85;;
52948;SDS011;38812;50.942;3.644;2023-04-03T09:07:20;5.63;;;3.45;;
52948;SDS011;38812;50.942;3.644;2023-04-03T09:09:56;8.43;;;3.30;;
52948;SDS011;38812;50.942;3.644;2023-04-03T09:12:29;6.82;;;2.90;;
52948;SDS011;38812;50.942;3.644;2023-04-03T09:20:38;8.48;;;2.60;;
52948;SDS011;38812;50.942;3.644;2023-04-03T09:26:09;4.55;;;1.92;;
52948;SDS011;38812;50.942;3.644;2023-04-03T09:28:59;5.00;;;1.90;;
52948;SDS011;38812;50.942;3.644;2023-04-03T09:31:35;7.63;;;1.33;;
52948;SDS011;38812;50.942;3.644;2023-04-03T09:34:05;3.15;;;1.50;;
52948;SDS011;38812;50.942;3.644;2023-04-03T09:36:38;3.95;;;1.73;;
52948;SDS011;38812;50.942;3.644;2023-04-03T09:41:37;4.53;;;1.40;;
52948;SDS011;38812;50.942;3.644;2023-04-03T09:44:03;3.97;;;1.65;;
52948;SDS011;38812;50.942;3.644;2023-04-03T09:46:42;4.05;;;1.50;;
52948;SDS011;38812;50.942;3.644;2023-04-03T09:49:08;4.80;;;1.45;;
52948;SDS011;38812;50.942;3.644;2023-04-03T09:51:37;5.18;;;1.70;;
52948;SDS011;38812;50.942;3.644;2023-04-03T09:54:23;6.03;;;2.03;;
52948;SDS011;38812;50.942;3.644;2023-04-03T09:57:08;3.13;;;1.90;;
52948;SDS011;38812;50.942;3.644;2023-04-03T09:59:38;4.93;;;1.30;;
52948;SDS011;38812;50.942;3.644;2023-04-03T10:02:30;2.67;;;1.60;;
52948;SDS011;38812;50.942;3.644;2023-04-03T10:04:59;6.00;;;2.10;;
52948;SDS011;38812;50.942;3.644;2023-04-03T10:07:35;4.90;;;2.25;;
52948;SDS011;38812;50.942;3.644;2023-04-03T10:10:23;5.45;;;2.00;;
52948;SDS011;38812;50.942;3.644;2023-04-03T10:13:12;5.38;;;2.05;;
52948;SDS011;38812;50.942;3.644;2023-04-03T10:15:46;5.20;;;1.75;;
52948;SDS011;38812;50.942;3.644;2023-04-03T10:18:27;4.93;;;2.28;;
52948;SDS011;38812;50.942;3.644;2023-04-03T10:20:59;8.18;;;2.65;;
52948;SDS011;38812;50.942;3.644;2023-04-03T10:23:45;4.10;;;2.45;;
52948;SDS011;38812;50.942;3.644;2023-04-03T10:34:45;5.18;;;2.03;;
52948;SDS011;38812;50.942;3.644;2023-04-03T10:53:34;5.05;;;1.75;;
52948;SDS011;38812;50.942;3.644;2023-04-03T10:56:26;5.63;;;1.60;;
52948;SDS011;38812;50.942;3.644;2023-04-03T10:59:01;5.78;;;2.63;;
52948;SDS011;38812;50.942;3.644;2023-04-03T11:01:39;5.57;;;1.77;;
52948;SDS011;38812;50.942;3.644;2023-04-03T11:04:09;5.57;;;1.98;;
52948;SDS011;38812;50.942;3.644;2023-04-03T11:06:41;4.68;;;1.85;;
52948;SDS011;38812;50.942;3.644;2023-04-03T11:09:18;3.10;;;1.45;;
52948;SDS011;38812;50.942;3.644;2023-04-03T11:12:46;2.13;;;1.23;;
52948;SDS011;38812;50.942;3.644;2023-04-03T11:14:53;5.82;;;1.80;;
52948;SDS011;38812;50.942;3.644;2023-04-03T11:17:31;4.35;;;1.60;;
52948;SDS011;38812;50.942;3.644;2023-04-03T11:20:13;2.75;;;1.70;;
52948;SDS011;38812;50.942;3.644;2023-04-03T11:22:47;3.65;;;1.45;;
52948;SDS011;38812;50.942;3.644;2023-04-03T11:25:20;5.90;;;1.60;;
52948;SDS011;38812;50.942;3.644;2023-04-03T11:30:23;3.53;;;1.40;;
52948;SDS011;38812;50.942;3.644;2023-04-03T11:35:59;4.68;;;1.15;;
52948;SDS011;38812;50.942;3.644;2023-04-03T11:38:33;8.75;;;1.60;;
52948;SDS011;38812;50.942;3.644;2023-04-03T11:41:04;4.18;;;1.30;;
52948;SDS011;38812;50.942;3.644;2023-04-03T11:43:32;5.85;;;1.23;;
52948;SDS011;38812;50.942;3.644;2023-04-03T11:46:05;5.50;;;2.05;;
52948;SDS011;38812;50.942;3.644;2023-04-03T12:04:10;2.80;;;0.93;;
52948;SDS011;38812;50.942;3.644;2023-04-03T12:09:21;7.25;;;1.52;;
52948;SDS011;38812;50.942;3.644;2023-04-03T12:11:59;2.67;;;1.15;;
52948;SDS011;38812;50.942;3.644;2023-04-03T12:14:26;2.15;;;1.00;;
52948;SDS011;38812;50.942;3.644;2023-04-03T12:16:54;4.65;;;1.60;;
52948;SDS011;38812;50.942;3.644;2023-04-03T12:19:37;1.73;;;0.98;;
52948;SDS011;38812;50.942;3.644;2023-04-03T12:22:12;4.15;;;1.10;;
52948;SDS011;38812;50.942;3.644;2023-04-03T12:24:44;5.77;;;1.00;;
52948;SDS011;38812;50.942;3.644;2023-04-03T12:35:49;4.13;;;0.88;;
52948;SDS011;38812;50.942;3.644;2023-04-03T12:46:57;2.38;;;0.93;;
52948;SDS011;38812;50.942;3.644;2023-04-03T12:51:54;2.45;;;0.98;;
52948;SDS011;38812;50.942;3.644;2023-04-03T12:54:23;5.68;;;1.58;;
52948;SDS011;38812;50.942;3.644;2023-04-03T12:57:21;6.13;;;1.27;;
52948;SDS011;38812;50.942;3.644;2023-04-03T12:59:49;2.78;;;1.20;;
52948;SDS011;38812;50.942;3.644;2023-04-03T13:02:25;2.30;;;1.38;;
52948;SDS011;38812;50.942;3.644;2023-04-03T13:04:58;5.13;;;1.10;;
52948;SDS011;38812;50.942;3.644;2023-04-03T13:07:31;5.78;;;1.30;;
52948;SDS011;38812;50.942;3.644;2023-04-03T13:12:50;6.47;;;1.52;;
52948;SDS011;38812;50.942;3.644;2023-04-03T13:15:57;4.28;;;2.15;;
52948;SDS011;38812;50.942;3.644;2023-04-03T13:20:48;1.48;;;1.23;;
52948;SDS011;38812;50.942;3.644;2023-04-03T13:23:15;7.90;;;1.50;;
52948;SDS011;38812;50.942;3.644;2023-04-03T13:25:45;3.58;;;1.40;;
52948;SDS011;38812;50.942;3.644;2023-04-03T13:28:13;7.28;;;1.33;;
52948;SDS011;38812;50.942;3.644;2023-04-03T13:30:59;4.03;;;1.20;;
52948;SDS011;38812;50.942;3.644;2023-04-03T13:33:30;3.58;;;1.40;;
52948;SDS011;38812;50.942;3.644;2023-04-03T13:36:05;3.03;;;1.23;;
52948;SDS011;38812;50.942;3.644;2023-04-03T13:38:33;4.10;;;1.35;;
52948;SDS011;38812;50.942;3.644;2023-04-03T13:41:03;4.18;;;1.20;;
52948;SDS011;38812;50.942;3.644;2023-04-03T13:43:46;2.95;;;1.17;;
52948;SDS011;38812;50.942;3.644;2023-04-03T13:51:17;1.83;;;0.82;;
52948;SDS011;38812;50.942;3.644;2023-04-03T13:58:56;1.75;;;1.00;;
52948;SDS011;38812;50.942;3.644;2023-04-03T14:01:32;3.55;;;1.20;;
52948;SDS011;38812;50.942;3.644;2023-04-03T14:04:10;2.53;;;1.10;;
52948;SDS011;38812;50.942;3.644;2023-04-03T14:06:39;5.43;;;1.05;;
52948;SDS011;38812;50.942;3.644;2023-04-03T14:09:05;2.22;;;0.90;;
52948;SDS011;38812;50.942;3.644;2023-04-03T14:11:31;2.90;;;1.02;;
52948;SDS011;38812;50.942;3.644;2023-04-03T14:13:58;4.70;;;1.17;;
52948;SDS011;38812;50.942;3.644;2023-04-03T14:16:37;3.53;;;0.88;;
52948;SDS011;38812;50.942;3.644;2023-04-03T14:19:04;3.22;;;1.20;;
52948;SDS011;38812;50.942;3.644;2023-04-03T14:21:30;3.38;;;0.80;;
52948;SDS011;38812;50.942;3.644;2023-04-03T14:23:55;1.60;;;0.63;;
52948;SDS011;38812;50.942;3.644;2023-04-03T14:26:22;3.33;;;1.23;;
52948;SDS011;38812;50.942;3.644;2023-04-03T14:28:52;2.10;;;0.80;;
52948;SDS011;38812;50.942;3.644;2023-04-03T14:31:19;1.77;;;0.93;;
52948;SDS011;38812;50.942;3.644;2023-04-03T14:33:45;1.80;;;0.90;;
52948;SDS011;38812;50.942;3.644;2023-04-03T14:36:12;1.77;;;1.02;;
52948;SDS011;38812;50.942;3.644;2023-04-03T14:38:39;1.48;;;0.70;;
52948;SDS011;38812;50.942;3.644;2023-04-03T14:41:06;2.33;;;0.90;;
52948;SDS011;38812;50.942;3.644;2023-04-03T14:43:31;1.73;;;0.77;;
52948;SDS011;38812;50.942;3.644;2023-04-03T14:45:57;1.60;;;0.80;;
52948;SDS011;38812;50.942;3.644;2023-04-03T14:48:23;3.92;;;2.10;;
52948;SDS011;38812;50.942;3.644;2023-04-03T14:50:52;3.75;;;1.02;;
52948;SDS011;38812;50.942;3.644;2023-04-03T14:53:18;1.80;;;1.02;;
52948;SDS011;38812;50.942;3.644;2023-04-03T14:55:47;3.83;;;1.40;;
52948;SDS011;38812;50.942;3.644;2023-04-03T14:58:14;2.65;;;1.00;;
52948;SDS011;38812;50.942;3.644;2023-04-03T15:00:41;0.60;;;0.60;;
52948;SDS011;38812;50.942;3.644;2023-04-03T15:03:09;25.23;;;10.63;;
52948;SDS011;38812;50.942;3.644;2023-04-03T15:05:38;2.55;;;0.80;;
52948;SDS011;38812;50.942;3.644;2023-04-03T15:08:03;3.33;;;1.55;;
52948;SDS011;38812;50.942;3.644;2023-04-03T15:10:29;3.38;;;1.00;;
52948;SDS011;38812;50.942;3.644;2023-04-03T15:12:56;2.75;;;0.75;;
52948;SDS011;38812;50.942;3.644;2023-04-03T15:15:22;3.38;;;0.93;;
52948;SDS011;38812;50.942;3.644;2023-04-03T15:17:52;1.70;;;1.08;;
52948;SDS011;38812;50.942;3.644;2023-04-03T15:20:20;3.95;;;1.65;;
52948;SDS011;38812;50.942;3.644;2023-04-03T15:22:48;10.88;;;4.75;;
52948;SDS011;38812;50.942;3.644;2023-04-03T15:25:14;1.48;;;0.95;;
52948;SDS011;38812;50.942;3.644;2023-04-03T15:27:41;0.93;;;0.80;;
52948;SDS011;38812;50.942;3.644;2023-04-03T15:30:08;3.13;;;1.00;;
52948;SDS011;38812;50.942;3.644;2023-04-03T15:32:37;2.75;;;1.10;;
52948;SDS011;38812;50.942;3.644;2023-04-03T15:35:03;3.63;;;1.05;;
52948;SDS011;38812;50.942;3.644;2023-04-03T15:37:29;3.40;;;0.90;;
52948;SDS011;38812;50.942;3.644;2023-04-03T15:39:54;3.75;;;0.80;;
52948;SDS011;38812;50.942;3.644;2023-04-03T15:42:20;3.30;;;0.93;;
52948;SDS011;38812;50.942;3.644;2023-04-03T15:44:45;7.93;;;2.95;;
52948;SDS011;38812;50.942;3.644;2023-04-03T15:47:11;25.17;;;11.38;;
52948;SDS011;38812;50.942;3.644;2023-04-03T15:49:36;2.83;;;1.30;;
52948;SDS011;38812;50.942;3.644;2023-04-03T15:52:03;3.50;;;1.20;;
52948;SDS011;38812;50.942;3.644;2023-04-03T15:54:28;4.25;;;1.17;;
52948;SDS011;38812;50.942;3.644;2023-04-03T15:56:54;3.03;;;1.15;;
52948;SDS011;38812;50.942;3.644;2023-04-03T15:59:20;4.65;;;1.67;;
52948;SDS011;38812;50.942;3.644;2023-04-03T16:01:45;4.20;;;0.95;;
52948;SDS011;38812;50.942;3.644;2023-04-03T16:04:11;1.83;;;1.05;;
52948;SDS011;38812;50.942;3.644;2023-04-03T16:06:37;3.38;;;1.00;;
52948;SDS011;38812;50.942;3.644;2023-04-03T16:09:03;7.32;;;2.40;;
52948;SDS011;38812;50.942;3.644;2023-04-03T16:11:29;7.10;;;1.48;;
52948;SDS011;38812;50.942;3.644;2023-04-03T16:13:55;3.10;;;1.20;;
52948;SDS011;38812;50.942;3.644;2023-04-03T16:16:21;2.67;;;1.02;;
52948;SDS011;38812;50.942;3.644;2023-04-03T16:18:47;11.70;;;4.03;;
52948;SDS011;38812;50.942;3.644;2023-04-03T16:21:13;4.40;;;1.48;;
52948;SDS011;38812;50.942;3.644;2023-04-03T16:23:40;5.50;;;1.10;;